MAPA DE AEROPUERTO

INFORMACIÓN METAR y TAF

METAR FOR LEGE
ADDS - METARS form results

(2140 UTC 31 March 2020)
Data provider http://aviationweather.gov/metar/data/
 
METAR text: LEGE 312130Z 32003KT 280V070 9999 RA FEW015 OVC055 09/08 Q1016
Conditions at: LEGE (GERONA/COSTA BRA, ES) observed 2130 UTC 31 March 2020
Temperature: 9.0°C (48°F)
Dewpoint: 8.0°C (46°F) [RH = 93%]
Pressure (altimeter): 30.00 inches Hg (1016.0 mb)
Winds: from the NW (320 degrees) at 3 MPH (3 knots; 1.5 m/s)
Visibility: 6 or more miles (10+ km)
Ceiling: 5500 feet AGL
Clouds: few clouds at 1500 feet AGL
overcast cloud deck at 5500 feet AGL
Weather: RA  (moderate rain)

METAR text: LEGE 312100Z VRB02KT 9999 RA FEW015 OVC055 09/08 Q1016
Conditions at: LEGE (GERONA/COSTA BRA, ES) observed 2100 UTC 31 March 2020
Temperature: 9.0°C (48°F)
Dewpoint: 8.0°C (46°F) [RH = 93%]
Pressure (altimeter): 30.00 inches Hg (1016.0 mb)
Winds: variable direction winds at 2 MPH (2 knots; 1.0 m/s)
Visibility: 6 or more miles (10+ km)
Ceiling: 5500 feet AGL
Clouds: few clouds at 1500 feet AGL
overcast cloud deck at 5500 feet AGL
Weather: RA  (moderate rain)

Forecast for: LEGE (GERONA/COSTA BRA, ES)
Text: TAF LEGE 311700Z 3118/0118 01009KT 9999 BKN040 TX16/0113Z TN08/0106Z
Forecast period: 1800 UTC 31 March 2020 to 1800 UTC 01 April 2020
Forecast type: FROM: standard forecast or significant change
Winds: from the N (10 degrees) at 10 MPH (9 knots; 4.6 m/s)
Visibility: 6 or more miles 10+ km)
Ceiling: 4000 feet AGL
Clouds: broken clouds at 4000 feet AGL
Weather: no significant weather forecast for this period
Text: TEMPO 3118/0118 2000 RA BR BKN009
Forecast period: 1800 UTC 31 March 2020 to 1800 UTC 01 April 2020
Forecast type: TEMPORARY: The following changes expected for less than half the time period
Visibility: 1.24 miles (2.00 km)
Ceiling: 900 feet AGL
Clouds: broken clouds at 900 feet AGL
Weather: RA BR  (moderate rain, mist)
Text: PROB40
Forecast period: 1400 to 1800 UTC 01 April 2020
Forecast type: TEMPORARY: The following changes expected for less than half the time period
Visibility: 1.86 miles (2.99 km)
Ceiling: at least 12,000 feet AGL
Clouds: few clouds at 1000 feet AGL
Weather: TSRA  (rain associated with thunderstorm(s))